createdAt,value
2022-12-16T00:02:23.978Z,41.70
2022-12-16T00:07:26.893Z,37.17
2022-12-16T00:12:29.672Z,33.43
2022-12-16T00:17:32.483Z,40.47
2022-12-16T00:22:35.294Z,38.13
2022-12-16T00:27:38.044Z,34.07
2022-12-16T05:34:21.735Z,21.97
2022-12-16T05:39:43.216Z,25.33
2022-12-16T05:45:04.437Z,25.97
2022-12-16T05:50:25.818Z,24.47
2022-12-16T05:55:47.101Z,25.20
2022-12-16T06:01:08.363Z,28.30
2022-12-16T06:06:29.556Z,26.97
2022-12-16T06:11:50.797Z,32.53
2022-12-16T06:17:12.198Z,27.77
2022-12-16T06:22:33.525Z,28.70
2022-12-16T06:27:55.081Z,31.30
2022-12-16T06:33:16.500Z,24.50
2022-12-16T06:38:37.852Z,25.37
2022-12-16T06:43:59.120Z,30.63
2022-12-16T06:49:20.664Z,32.87
2022-12-16T06:54:42.204Z,27.90
2022-12-16T07:00:03.881Z,26.03
2022-12-16T07:05:30.787Z,32.53
2022-12-16T07:10:52.708Z,33.20
2022-12-16T07:16:16.708Z,28.90
2022-12-16T07:21:38.242Z,27.10
2022-12-16T07:26:59.453Z,32.30
2022-12-16T07:32:20.706Z,25.03
2022-12-16T07:37:42.007Z,31.50
2022-12-16T07:43:06.547Z,33.37
2022-12-16T07:48:27.774Z,35.37
2022-12-16T07:53:49.308Z,31.70
2022-12-16T07:59:10.792Z,23.23
2022-12-16T08:04:32.029Z,30.07
2022-12-16T08:09:53.618Z,26.97
2022-12-16T08:15:14.955Z,33.27
2022-12-16T08:20:36.123Z,31.20
2022-12-16T08:25:57.317Z,23.47
2022-12-16T08:31:18.610Z,28.23
2022-12-16T08:36:39.914Z,29.83
2022-12-16T08:42:01.232Z,30.13
2022-12-16T08:47:22.650Z,36.40
2022-12-16T08:52:43.884Z,34.90
2022-12-16T08:58:12.979Z,31.70
2022-12-16T09:03:34.756Z,33.43
2022-12-16T09:08:56.440Z,33.70
2022-12-16T09:14:17.671Z,38.90
2022-12-16T09:19:39.104Z,37.27
2022-12-16T09:25:00.467Z,37.73
2022-12-16T09:30:22.258Z,33.20
2022-12-16T09:35:43.425Z,34.57
2022-12-16T09:41:04.932Z,27.97
2022-12-16T09:46:52.122Z,39.80
2022-12-16T09:52:18.164Z,41.23
2022-12-16T09:57:40.236Z,36.63
2022-12-16T10:03:06.465Z,34.00
2022-12-16T10:08:40.084Z,33.90
2022-12-16T10:14:19.698Z,35.43
2022-12-16T10:20:09.103Z,36.70
2022-12-16T10:25:36.833Z,40.70
2022-12-16T10:30:58.328Z,36.73
2022-12-16T10:36:19.742Z,38.70
2022-12-16T10:41:47.041Z,42.60
2022-12-16T10:47:08.277Z,32.67
2022-12-16T10:52:31.628Z,38.90
2022-12-16T10:58:10.191Z,31.33
2022-12-16T11:03:46.660Z,30.53
2022-12-16T11:09:08.008Z,36.80
2022-12-16T11:14:36.752Z,43.23
2022-12-16T11:19:58.106Z,38.97
2022-12-16T11:25:33.186Z,36.90
2022-12-16T11:30:54.917Z,37.63
2022-12-16T11:36:31.303Z,32.97
2022-12-16T11:42:01.476Z,35.57
2022-12-16T11:47:27.649Z,35.70
2022-12-16T11:52:49.380Z,38.27
2022-12-16T11:58:44.895Z,37.90
2022-12-16T12:04:08.419Z,37.90
2022-12-16T12:09:44.884Z,39.47
2022-12-16T12:15:21.518Z,37.90
2022-12-16T12:20:54.991Z,37.13
2022-12-16T12:26:33.582Z,38.30
2022-12-16T12:31:58.362Z,30.67
2022-12-16T12:37:38.936Z,40.53
2022-12-16T12:43:04.796Z,37.43
2022-12-16T12:48:44.933Z,48.27
2022-12-16T12:54:27.668Z,44.17
2022-12-16T13:00:20.540Z,32.50
2022-12-16T13:05:41.996Z,37.53
2022-12-16T13:11:03.344Z,34.73
2022-12-16T13:16:32.522Z,43.90
2022-12-16T13:21:57.281Z,43.27
2022-12-16T13:27:22.171Z,48.37
2022-12-16T13:32:46.366Z,45.83
2022-12-16T13:38:25.054Z,50.07
2022-12-16T13:44:15.126Z,44.70
2022-12-16T13:49:55.376Z,50.17
2022-12-16T13:55:27.049Z,49.47
2022-12-16T14:00:55.566Z,49.60
2022-12-16T14:06:18.408Z,51.37
2022-12-16T14:12:04.116Z,54.87
2022-12-16T14:17:32.716Z,55.23
2022-12-16T14:23:47.148Z,52.60
2022-12-16T14:29:05.491Z,53.57
2022-12-16T14:34:41.538Z,57.27
2022-12-16T14:40:02.840Z,61.33
2022-12-16T14:45:36.157Z,64.67
2022-12-16T14:50:57.422Z,69.70
2022-12-16T14:56:39.333Z,65.80
2022-12-16T15:02:05.275Z,64.33
2022-12-16T15:07:31.742Z,64.37
2022-12-16T15:13:03.934Z,54.50
2022-12-16T15:18:29.140Z,62.90
2022-12-16T15:23:52.236Z,59.10
2022-12-16T15:29:14.223Z,55.90
2022-12-16T15:34:51.309Z,67.60
2022-12-16T15:40:12.598Z,56.13
2022-12-16T15:45:46.421Z,69.67
2022-12-16T15:51:12.360Z,52.23
2022-12-16T15:56:45.288Z,51.20
2022-12-16T16:02:06.806Z,53.37
2022-12-16T16:07:34.753Z,65.83
2022-12-16T16:12:56.110Z,55.57
2022-12-16T16:18:23.521Z,62.20
2022-12-16T16:23:44.800Z,55.20
2022-12-16T16:29:06.039Z,48.57
2022-12-16T16:34:27.875Z,63.33
2022-12-16T16:39:49.116Z,72.50
2022-12-16T16:45:10.256Z,57.17
2022-12-16T16:50:34.789Z,67.50
2022-12-16T16:55:56.318Z,50.97
2022-12-16T17:01:17.919Z,57.60
2022-12-16T17:06:39.528Z,60.20
2022-12-16T17:12:01.071Z,52.03
2022-12-16T17:17:22.707Z,58.20
2022-12-16T17:22:44.287Z,54.80
2022-12-16T17:28:05.685Z,56.30
2022-12-16T17:33:27.162Z,71.43
2022-12-16T17:38:48.628Z,64.10
2022-12-16T17:44:11.898Z,55.43
2022-12-16T17:49:33.053Z,59.77
2022-12-16T17:54:54.234Z,57.57
2022-12-16T18:00:15.694Z,74.87
2022-12-16T18:05:42.495Z,52.37
2022-12-16T18:11:09.658Z,54.07
2022-12-16T18:16:31.031Z,56.30
2022-12-16T18:21:52.322Z,57.67
2022-12-16T18:27:13.467Z,71.17
2022-12-16T18:32:35.664Z,62.23
2022-12-16T18:37:57.309Z,66.27
2022-12-16T18:43:18.524Z,49.70
2022-12-16T18:48:40.038Z,61.27
2022-12-16T18:54:01.142Z,62.07
2022-12-16T18:59:22.491Z,67.17
2022-12-16T19:04:43.904Z,59.13
2022-12-16T19:10:05.206Z,55.13
2022-12-16T19:15:27.026Z,74.70
2022-12-16T19:20:48.457Z,61.93
2022-12-16T19:26:16.365Z,61.43
2022-12-16T19:31:37.773Z,50.67
2022-12-16T19:36:59.960Z,70.77
2022-12-16T19:42:21.372Z,65.27
2022-12-16T19:47:42.537Z,61.97
2022-12-16T19:53:03.835Z,46.53
2022-12-16T19:58:25.293Z,79.27
2022-12-16T20:03:47.482Z,66.97
2022-12-16T20:09:10.701Z,64.90
2022-12-16T20:14:31.944Z,72.67
2022-12-16T20:19:53.842Z,112.77
2022-12-16T20:25:17.337Z,60.83
2022-12-16T20:30:38.837Z,58.17
2022-12-16T20:36:00.584Z,60.37
2022-12-16T20:41:23.433Z,66.27
2022-12-16T20:46:46.192Z,77.97
2022-12-16T20:52:07.561Z,54.20
2022-12-16T20:57:28.992Z,66.93
2022-12-16T21:02:50.391Z,51.97
2022-12-16T21:08:11.662Z,66.80
2022-12-16T21:13:35.290Z,57.57
2022-12-16T21:18:56.669Z,65.90
2022-12-16T21:24:25.467Z,67.83
2022-12-16T21:29:46.729Z,69.93
2022-12-16T21:35:08.203Z,59.37
2022-12-16T21:40:30.724Z,72.47
2022-12-16T21:45:52.037Z,59.53
2022-12-16T21:51:13.535Z,70.43
2022-12-16T21:56:35.016Z,57.37
2022-12-16T22:01:56.691Z,61.00
2022-12-16T22:07:18.079Z,66.20
2022-12-16T22:12:39.775Z,62.53
2022-12-16T22:18:00.910Z,56.03
2022-12-16T22:23:28.073Z,70.43
2022-12-16T22:28:49.593Z,53.40
2022-12-16T22:34:12.374Z,64.13
2022-12-16T22:39:33.853Z,67.47
2022-12-16T22:44:56.549Z,66.30
2022-12-16T22:50:18.270Z,75.97
2022-12-16T22:55:39.595Z,57.37
2022-12-16T23:01:01.190Z,78.53
2022-12-16T23:06:22.315Z,72.87
2022-12-16T23:11:50.304Z,68.03
2022-12-16T23:17:11.697Z,64.77
2022-12-16T23:22:33.123Z,73.63
2022-12-16T23:27:56.757Z,65.27
2022-12-16T23:33:19.281Z,72.30
2022-12-16T23:38:40.705Z,33.07
2022-12-16T23:44:02.909Z,50.23
2022-12-16T23:49:24.107Z,67.13
2022-12-16T23:54:56.205Z,43.90
